FDX1278 FSIA-YPPH
Flight info
| Callsign | FDX1278 |
|---|---|
| Flight time | N/A |
| Altitude | 31000 |
| Route | TILOM DCT NOMIG DCT 23S090E/N0485F330 DCT ACOOL |
| Aircraft | B77L/H-SDE1E2E3FGHIJ2J3J4J5M1RWXY/LB1D1 |
Departure
| Time | N/A |
|---|---|
| Airport | Seychelles International Airport (FSIA) |
Arrival
| Time | 2026-05-03 20:39 |
|---|---|
| Airport | Perth International Airport (YPPH) |
| Time | Latitude | Longitude | Altitude | Speed | Heading |
|---|---|---|---|---|---|
| 2026-05-03 20:15 | -31.51443 | 114.27876 | 29640 ft | 445 kts | 112° |
| 2026-05-03 20:15 | -31.52559 | 114.31239 | 29165 ft | 441 kts | 112° |
| 2026-05-03 20:15 | -31.53665 | 114.34579 | 28712 ft | 437 kts | 112° |
| 2026-05-03 20:15 | -31.54758 | 114.37879 | 28258 ft | 433 kts | 112° |
| 2026-05-03 20:16 | -31.55846 | 114.41164 | 27792 ft | 430 kts | 112° |
| 2026-05-03 20:16 | -31.56920 | 114.44414 | 27355 ft | 426 kts | 112° |
| 2026-05-03 20:16 | -31.57984 | 114.47645 | 26921 ft | 423 kts | 113° |
| 2026-05-03 20:16 | -31.59021 | 114.50794 | 26494 ft | 420 kts | 113° |
| 2026-05-03 20:17 | -31.60075 | 114.53994 | 26057 ft | 417 kts | 113° |
| 2026-05-03 20:17 | -31.61116 | 114.57157 | 25630 ft | 414 kts | 113° |
| 2026-05-03 20:17 | -31.62150 | 114.60301 | 25207 ft | 412 kts | 113° |
| 2026-05-03 20:17 | -31.63180 | 114.63428 | 24777 ft | 410 kts | 113° |
| 2026-05-03 20:18 | -31.64203 | 114.66541 | 24340 ft | 408 kts | 113° |
| 2026-05-03 20:18 | -31.65221 | 114.69641 | 23902 ft | 406 kts | 113° |
| 2026-05-03 20:18 | -31.66233 | 114.72727 | 23401 ft | 404 kts | 113° |
| 2026-05-03 20:18 | -31.67218 | 114.75734 | 22955 ft | 401 kts | 113° |
| 2026-05-03 20:19 | -31.68220 | 114.78797 | 22517 ft | 398 kts | 113° |
| 2026-05-03 20:19 | -31.69206 | 114.81815 | 22095 ft | 395 kts | 113° |
| 2026-05-03 20:19 | -31.70186 | 114.84816 | 21672 ft | 392 kts | 113° |
| 2026-05-03 20:19 | -31.71155 | 114.87790 | 21246 ft | 389 kts | 113° |
| 2026-05-03 20:20 | -31.72120 | 114.90753 | 20823 ft | 387 kts | 113° |
| 2026-05-03 20:20 | -31.73078 | 114.93695 | 20408 ft | 385 kts | 113° |
| 2026-05-03 20:20 | -31.74031 | 114.96626 | 19997 ft | 383 kts | 113° |
| 2026-05-03 20:20 | -31.74977 | 114.99536 | 19564 ft | 381 kts | 113° |
| 2026-05-03 20:21 | -31.75908 | 115.02403 | 19161 ft | 380 kts | 113° |
| 2026-05-03 20:21 | -31.76846 | 115.05297 | 18726 ft | 379 kts | 112° |
| 2026-05-03 20:21 | -31.77782 | 115.08182 | 18254 ft | 377 kts | 112° |
| 2026-05-03 20:21 | -31.78712 | 115.11053 | 17792 ft | 375 kts | 112° |
| 2026-05-03 20:22 | -31.79638 | 115.13917 | 17360 ft | 373 kts | 112° |
| 2026-05-03 20:22 | -31.80556 | 115.16754 | 16943 ft | 371 kts | 112° |
| 2026-05-03 20:22 | -31.81468 | 115.19579 | 16521 ft | 369 kts | 112° |
| 2026-05-03 20:22 | -31.82374 | 115.22388 | 16099 ft | 367 kts | 112° |
| 2026-05-03 20:23 | -31.83275 | 115.25185 | 15689 ft | 365 kts | 112° |
| 2026-05-03 20:23 | -31.84160 | 115.27932 | 15282 ft | 363 kts | 112° |
| 2026-05-03 20:23 | -31.85054 | 115.30709 | 14871 ft | 362 kts | 112° |
| 2026-05-03 20:23 | -31.85940 | 115.33467 | 14457 ft | 361 kts | 112° |
| 2026-05-03 20:24 | -31.86827 | 115.36226 | 14037 ft | 360 kts | 112° |
| 2026-05-03 20:24 | -31.87705 | 115.38961 | 13572 ft | 351 kts | 112° |
| 2026-05-03 20:24 | -31.88537 | 115.41561 | 13142 ft | 329 kts | 112° |
| 2026-05-03 20:24 | -31.89319 | 115.44006 | 12765 ft | 310 kts | 111° |
| 2026-05-03 20:25 | -31.90069 | 115.46348 | 12445 ft | 305 kts | 111° |
| 2026-05-03 20:25 | -31.90313 | 115.47108 | 12327 ft | 305 kts | 111° |
| 2026-05-03 20:25 | -31.91009 | 115.49283 | 12006 ft | 305 kts | 111° |
| 2026-05-03 20:26 | -31.91757 | 115.51619 | 11651 ft | 305 kts | 111° |
| 2026-05-03 20:26 | -31.92505 | 115.53957 | 11300 ft | 305 kts | 111° |
| 2026-05-03 20:26 | -31.93258 | 115.56317 | 10873 ft | 306 kts | 111° |
| 2026-05-03 20:26 | -31.93981 | 115.58584 | 10526 ft | 286 kts | 111° |
| 2026-05-03 20:27 | -31.94650 | 115.60684 | 10176 ft | 268 kts | 110° |
| 2026-05-03 20:27 | -31.95286 | 115.62682 | 10107 ft | 255 kts | 110° |
| 2026-05-03 20:27 | -31.95907 | 115.64633 | 9975 ft | 258 kts | 110° |
| 2026-05-03 20:27 | -31.96549 | 115.66650 | 9757 ft | 264 kts | 110° |
| 2026-05-03 20:28 | -31.97187 | 115.68653 | 9599 ft | 254 kts | 110° |
| 2026-05-03 20:28 | -31.97781 | 115.70526 | 9420 ft | 235 kts | 110° |
| 2026-05-03 20:28 | -31.98345 | 115.72301 | 9247 ft | 231 kts | 110° |
| 2026-05-03 20:28 | -31.98900 | 115.74049 | 9006 ft | 225 kts | 110° |
| 2026-05-03 20:29 | -31.99435 | 115.75767 | 8649 ft | 217 kts | 105° |
| 2026-05-03 20:29 | -31.99464 | 115.77425 | 8339 ft | 201 kts | 73° |
| 2026-05-03 20:29 | -31.98788 | 115.78840 | 8155 ft | 200 kts | 49° |
| 2026-05-03 20:29 | -31.97677 | 115.79873 | 7922 ft | 210 kts | 28° |
| 2026-05-03 20:30 | -31.96246 | 115.80307 | 7653 ft | 214 kts | 9° |
| 2026-05-03 20:30 | -31.94768 | 115.80471 | 7378 ft | 213 kts | 7° |
| 2026-05-03 20:30 | -31.93306 | 115.80620 | 7115 ft | 209 kts | 8° |
| 2026-05-03 20:30 | -31.91878 | 115.80778 | 6853 ft | 204 kts | 8° |
| 2026-05-03 20:31 | -31.90480 | 115.80942 | 6609 ft | 201 kts | 8° |
| 2026-05-03 20:31 | -31.89096 | 115.81109 | 6357 ft | 199 kts | 8° |
| 2026-05-03 20:31 | -31.87738 | 115.81276 | 6116 ft | 198 kts | 8° |
| 2026-05-03 20:31 | -31.86372 | 115.81447 | 5882 ft | 196 kts | 11° |
| 2026-05-03 20:32 | -31.85146 | 115.82013 | 5627 ft | 189 kts | 36° |
| 2026-05-03 20:32 | -31.84106 | 115.82984 | 5416 ft | 192 kts | 46° |
| 2026-05-03 20:32 | -31.83216 | 115.84147 | 5177 ft | 191 kts | 53° |
| 2026-05-03 20:32 | -31.82440 | 115.85397 | 4928 ft | 189 kts | 57° |
| 2026-05-03 20:33 | -31.81725 | 115.86682 | 4674 ft | 187 kts | 59° |
| 2026-05-03 20:33 | -31.81070 | 115.87972 | 4443 ft | 186 kts | 61° |
| 2026-05-03 20:33 | -31.80490 | 115.89315 | 4209 ft | 184 kts | 69° |
| 2026-05-03 20:33 | -31.80082 | 115.90735 | 3981 ft | 183 kts | 75° |
| 2026-05-03 20:34 | -31.79806 | 115.92194 | 3750 ft | 183 kts | 80° |
| 2026-05-03 20:34 | -31.79612 | 115.93666 | 3515 ft | 182 kts | 83° |
| 2026-05-03 20:34 | -31.79494 | 115.95144 | 3267 ft | 181 kts | 87° |
| 2026-05-03 20:34 | -31.79496 | 115.96608 | 3031 ft | 178 kts | 95° |
| 2026-05-03 20:35 | -31.79666 | 115.98040 | 2803 ft | 175 kts | 102° |
| 2026-05-03 20:35 | -31.80285 | 115.99228 | 2593 ft | 179 kts | 142° |
| 2026-05-03 20:35 | -31.81516 | 115.99629 | 2542 ft | 191 kts | 174° |
| 2026-05-03 20:35 | -31.82833 | 115.99533 | 2507 ft | 190 kts | 181° |
| 2026-05-03 20:36 | -31.84115 | 115.99331 | 2396 ft | 182 kts | 183° |
| 2026-05-03 20:36 | -31.85332 | 115.99040 | 2084 ft | 175 kts | 187° |
| 2026-05-03 20:36 | -31.86489 | 115.98704 | 1708 ft | 166 kts | 188° |
| 2026-05-03 20:36 | -31.87573 | 115.98387 | 1351 ft | 158 kts | 188° |
| 2026-05-03 20:37 | -31.88639 | 115.98078 | 975 ft | 158 kts | 191° |
| 2026-05-03 20:37 | -31.89692 | 115.97768 | 702 ft | 152 kts | 193° |
| 2026-05-03 20:37 | -31.90711 | 115.97471 | 506 ft | 153 kts | 194° |
| 2026-05-03 20:37 | -31.91732 | 115.97174 | 312 ft | 150 kts | 194° |
| 2026-05-03 20:38 | -31.92733 | 115.96880 | 153 ft | 147 kts | 193° |
| 2026-05-03 20:38 | -31.93682 | 115.96602 | 64 ft | 128 kts | 194° |
| 2026-05-03 20:38 | -31.94428 | 115.96386 | 68 ft | 93 kts | 193° |
| 2026-05-03 20:38 | -31.94939 | 115.96242 | 67 ft | 58 kts | 193° |
| 2026-05-03 20:39 | -31.95218 | 115.96162 | 67 ft | 29 kts | 194° |
| 2026-05-03 20:39 | -31.95413 | 115.96106 | 66 ft | 29 kts | 194° |
| 2026-05-03 20:39 | -31.95611 | 115.96049 | 67 ft | 29 kts | 194° |
| 2026-05-03 20:39 | -31.95776 | 115.95995 | 62 ft | 15 kts | 201° |
| 2026-05-03 20:40 | -31.95846 | 115.95904 | 65 ft | 15 kts | 262° |
| 2026-05-03 20:40 | -31.95812 | 115.95786 | 62 ft | 15 kts | 309° |
| 2026-05-03 20:40 | -31.95712 | 115.95775 | 64 ft | 15 kts | 16° |
| 2026-05-03 20:40 | -31.95608 | 115.95810 | 67 ft | 15 kts | 15° |
| 2026-05-03 20:41 | -31.95503 | 115.95841 | 64 ft | 15 kts | 14° |
| 2026-05-03 20:41 | -31.95399 | 115.95872 | 68 ft | 15 kts | 14° |
| 2026-05-03 20:41 | -31.95294 | 115.95899 | 67 ft | 15 kts | 11° |
| 2026-05-03 20:41 | -31.95190 | 115.95926 | 67 ft | 15 kts | 16° |
| 2026-05-03 20:42 | -31.95085 | 115.95958 | 64 ft | 15 kts | 16° |
| 2026-05-03 20:42 | -31.94982 | 115.95991 | 68 ft | 15 kts | 14° |
| 2026-05-03 20:42 | -31.94877 | 115.96022 | 65 ft | 15 kts | 14° |
| 2026-05-03 20:42 | -31.94773 | 115.96054 | 67 ft | 15 kts | 14° |
| 2026-05-03 20:43 | -31.94668 | 115.96083 | 67 ft | 15 kts | 13° |
| 2026-05-03 20:43 | -31.94563 | 115.96112 | 68 ft | 15 kts | 13° |
| 2026-05-03 20:43 | -31.94459 | 115.96140 | 67 ft | 15 kts | 13° |
| 2026-05-03 20:43 | -31.94356 | 115.96118 | 66 ft | 16 kts | 330° |
| 2026-05-03 20:44 | -31.94264 | 115.96052 | 70 ft | 16 kts | 328° |
| 2026-05-03 20:44 | -31.94172 | 115.95986 | 69 ft | 16 kts | 328° |
| 2026-05-03 20:44 | -31.94079 | 115.95922 | 66 ft | 16 kts | 329° |
| 2026-05-03 20:44 | -31.93992 | 115.95862 | 65 ft | 8 kts | 329° |
| 2026-05-03 20:45 | -31.93971 | 115.95802 | 62 ft | 9 kts | 262° |
| 2026-05-03 20:45 | -31.93957 | 115.95753 | 62 ft | 3 kts | 312° |
| 2026-05-03 20:45 | -31.93944 | 115.95740 | 67 ft | 0 kts | 324° |
| 2026-05-03 20:46 | -31.93951 | 115.95747 | 62 ft | 1 kts | 335° |
| 2026-05-03 20:46 | -31.93966 | 115.95754 | 65 ft | 1 kts | 338° |
| 2026-05-03 20:46 | -31.93954 | 115.95745 | 62 ft | 2 kts | 329° |
| 2026-05-03 20:46 | -31.93951 | 115.95743 | 62 ft | 2 kts | 329° |
| 2026-05-03 20:47 | -31.93948 | 115.95740 | 62 ft | 0 kts | 329° |